Time;durP1;ratioP1;P1;durP2;ratioP2;P2;SDS_P1;SDS_P2;PMS_P1;PMS_P2;Temp;Humidity;BMP_temperature;BMP_pressure;BME280_temperature;BME280_humidity;BME280_pressure;Samples;Min_cycle;Max_cycle;Signal;HPM_P1;HPM_P2
2021/11/22 00:00:26;;;;;;;6.17;3.60;;;6.80;99.90;;;;;;5005726;28;20202;-77
2021/11/22 00:02:54;;;;;;;7.03;4.20;;;6.80;99.90;;;;;;5005796;28;20241;-79
2021/11/22 00:05:22;;;;;;;7.03;3.67;;;6.80;99.90;;;;;;5006086;28;20245;-79
2021/11/22 00:07:50;;;;;;;5.93;4.10;;;6.80;99.90;;;;;;5005523;28;20675;-79
2021/11/22 00:10:17;;;;;;;6.10;3.97;;;6.70;99.90;;;;;;5005467;28;20216;-80
2021/11/22 00:12:45;;;;;;;6.43;3.77;;;6.70;99.90;;;;;;5005882;28;20229;-79
2021/11/22 00:15:14;;;;;;;5.30;4.03;;;6.70;99.90;;;;;;5005766;28;20237;-79
2021/11/22 00:17:42;;;;;;;4.70;3.50;;;6.70;99.90;;;;;;5005824;28;20247;-78
2021/11/22 00:20:12;;;;;;;6.80;4.23;;;6.70;99.90;;;;;;5005335;28;20307;-79
2021/11/22 00:22:43;;;;;;;6.03;3.90;;;6.80;99.90;;;;;;5005567;28;20668;-80
2021/11/22 00:25:12;;;;;;;4.67;3.63;;;6.80;99.90;;;;;;5005389;28;20204;-79
2021/11/22 00:27:39;;;;;;;5.73;3.47;;;6.80;99.90;;;;;;5005777;28;20618;-77
2021/11/22 00:30:07;;;;;;;4.33;3.50;;;6.80;99.90;;;;;;5005697;28;20248;-77
2021/11/22 00:32:35;;;;;;;4.60;3.23;;;6.80;99.90;;;;;;5005861;28;20297;-77
2021/11/22 00:35:03;;;;;;;8.30;3.57;;;6.80;99.90;;;;;;5005712;28;20201;-78
2021/11/22 00:37:33;;;;;;;7.77;3.43;;;6.90;99.90;;;;;;5005534;28;20296;-77
2021/11/22 00:40:01;;;;;;;6.03;3.57;;;6.80;99.90;;;;;;5005625;28;20279;-77
2021/11/22 00:42:29;;;;;;;4.50;3.40;;;6.90;99.90;;;;;;5005430;28;20205;-77
2021/11/22 00:44:57;;;;;;;4.57;3.93;;;6.90;99.90;;;;;;5005703;28;20547;-76
2021/11/22 00:47:24;;;;;;;7.40;4.10;;;6.90;99.90;;;;;;5005189;28;20217;-77
2021/11/22 00:49:51;;;;;;;6.03;3.63;;;6.90;99.90;;;;;;5004925;28;20861;-76
2021/11/22 00:52:18;;;;;;;4.00;3.13;;;6.80;99.90;;;;;;5005020;28;20638;-76
2021/11/22 00:54:45;;;;;;;5.80;3.40;;;6.90;99.90;;;;;;5005113;28;20291;-76
2021/11/22 00:57:12;;;;;;;8.03;4.37;;;6.90;99.90;;;;;;5005285;28;20205;-76
2021/11/22 00:59:40;;;;;;;7.07;3.60;;;6.90;99.90;;;;;;5005137;28;20234;-76
2021/11/22 01:02:07;;;;;;;6.47;3.53;;;6.90;99.90;;;;;;5004823;28;20325;-77
2021/11/22 01:04:36;;;;;;;4.20;3.00;;;6.80;99.90;;;;;;5005298;28;20210;-77
2021/11/22 01:07:03;;;;;;;3.87;3.17;;;6.80;99.90;;;;;;5004863;28;20679;-77
2021/11/22 01:09:31;;;;;;;5.43;3.10;;;6.80;99.90;;;;;;5006529;28;20209;-77
2021/11/22 01:11:58;;;;;;;5.33;2.90;;;6.80;99.90;;;;;;5008210;28;20237;-77
2021/11/22 01:14:25;;;;;;;4.07;3.07;;;6.80;99.90;;;;;;5008802;28;20213;-77
2021/11/22 01:16:53;;;;;;;4.03;3.03;;;6.80;99.90;;;;;;5008647;28;20241;-77
2021/11/22 01:19:20;;;;;;;3.07;2.87;;;6.90;99.90;;;;;;5008306;28;20244;-74
2021/11/22 01:21:47;;;;;;;4.77;2.97;;;6.90;99.90;;;;;;5008197;28;20340;-74
2021/11/22 01:24:14;;;;;;;2.90;2.53;;;6.90;99.90;;;;;;5007995;28;20249;-75
2021/11/22 01:26:41;;;;;;;3.27;2.80;;;6.90;99.90;;;;;;5008432;28;20210;-76
2021/11/22 01:29:08;;;;;;;3.67;2.77;;;6.90;99.90;;;;;;5008089;28;20407;-76
2021/11/22 01:31:35;;;;;;;3.47;3.13;;;6.80;99.90;;;;;;5008579;28;20240;-76
2021/11/22 01:34:04;;;;;;;4.43;2.60;;;6.80;99.90;;;;;;5008144;28;20284;-76
2021/11/22 01:36:31;;;;;;;3.00;2.70;;;6.80;99.90;;;;;;5008449;28;20233;-76
2021/11/22 01:38:58;;;;;;;2.70;2.50;;;6.80;99.90;;;;;;5008271;28;20294;-75
2021/11/22 01:41:25;;;;;;;5.57;2.70;;;6.70;99.90;;;;;;5008218;28;20638;-76
2021/11/22 01:43:52;;;;;;;3.07;2.40;;;6.70;99.90;;;;;;5008074;28;20244;-74
2021/11/22 01:46:21;;;;;;;2.73;2.30;;;6.70;99.90;;;;;;5007930;28;20233;-73
2021/11/22 01:48:49;;;;;;;2.20;2.00;;;6.70;99.90;;;;;;5007980;28;20236;-74
2021/11/22 01:51:17;;;;;;;2.20;2.00;;;6.70;99.90;;;;;;5007587;28;20248;-76
2021/11/22 01:53:44;;;;;;;4.00;2.30;;;6.70;99.90;;;;;;5007930;28;20230;-76
2021/11/22 01:56:11;;;;;;;3.67;2.00;;;6.70;99.90;;;;;;5007569;28;20248;-76
2021/11/22 01:58:38;;;;;;;5.13;2.13;;;6.70;99.90;;;;;;5007918;28;20284;-76
2021/11/22 02:01:06;;;;;;;4.07;1.77;;;6.70;99.90;;;;;;5007304;28;20317;-76
2021/11/22 02:03:33;;;;;;;2.90;1.90;;;6.70;99.90;;;;;;5007543;28;20247;-76
2021/11/22 02:06:00;;;;;;;3.83;2.00;;;6.80;99.90;;;;;;5008040;28;20288;-76
2021/11/22 02:08:29;;;;;;;3.60;1.80;;;6.80;99.90;;;;;;5007667;28;20237;-77
2021/11/22 02:10:56;;;;;;;2.83;1.80;;;6.80;99.90;;;;;;5007736;28;20297;-76
2021/11/22 02:13:22;;;;;;;2.17;1.70;;;6.80;99.90;;;;;;5007375;28;20668;-76
2021/11/22 02:15:50;;;;;;;2.53;1.50;;;6.80;99.90;;;;;;5007217;28;20241;-76
2021/11/22 02:18:18;;;;;;;1.67;1.20;;;6.80;99.90;;;;;;5007670;28;20289;-76
2021/11/22 02:20:47;;;;;;;2.37;1.30;;;6.80;99.90;;;;;;5007486;28;20237;-76
2021/11/22 02:23:15;;;;;;;1.20;1.20;;;6.80;99.90;;;;;;5007350;28;20324;-77
2021/11/22 02:25:44;;;;;;;1.40;1.30;;;6.70;99.90;;;;;;5007567;28;20205;-76
2021/11/22 02:28:13;;;;;;;2.13;1.30;;;6.70;99.90;;;;;;5007224;28;20226;-76
2021/11/22 02:30:42;;;;;;;2.37;1.30;;;6.70;99.90;;;;;;5007710;28;20258;-76
2021/11/22 02:33:12;;;;;;;1.40;1.30;;;6.70;99.90;;;;;;5007465;28;20206;-76
2021/11/22 02:35:42;;;;;;;1.60;1.03;;;6.70;99.90;;;;;;5007341;28;20204;-76
2021/11/22 02:38:10;;;;;;;2.83;1.60;;;6.70;99.90;;;;;;5007412;28;20288;-77
2021/11/22 02:40:37;;;;;;;1.77;1.33;;;6.70;99.90;;;;;;5007588;28;20578;-76
2021/11/22 02:43:04;;;;;;;4.23;1.20;;;6.70;99.90;;;;;;5007247;28;20232;-77
2021/11/22 02:45:31;;;;;;;2.63;1.30;;;6.70;99.90;;;;;;5007411;28;20304;-76
2021/11/22 02:47:58;;;;;;;1.70;1.07;;;6.60;99.90;;;;;;5006997;28;20305;-76
2021/11/22 02:50:25;;;;;;;1.77;1.33;;;6.70;99.90;;;;;;5007013;28;20222;-77
2021/11/22 02:52:52;;;;;;;1.57;1.10;;;6.70;99.90;;;;;;5006827;28;20233;-78
2021/11/22 02:55:22;;;;;;;1.77;1.40;;;6.70;99.90;;;;;;5006962;28;20217;-77
2021/11/22 02:57:50;;;;;;;1.90;1.07;;;6.70;99.90;;;;;;5007152;28;20209;-76
2021/11/22 03:00:20;;;;;;;1.50;0.83;;;6.70;99.90;;;;;;5006700;28;20423;-77
2021/11/22 03:02:48;;;;;;;1.57;1.00;;;6.80;99.90;;;;;;5006537;28;20336;-77
2021/11/22 03:05:15;;;;;;;1.43;0.93;;;6.70;99.90;;;;;;5006875;28;20232;-77
2021/11/22 03:07:42;;;;;;;1.50;1.10;;;6.80;99.90;;;;;;5006760;28;20254;-76
2021/11/22 03:10:10;;;;;;;1.43;0.90;;;6.80;99.90;;;;;;5006975;28;20751;-77
2021/11/22 03:12:38;;;;;;;1.30;1.20;;;6.80;99.90;;;;;;5006695;28;20261;-76
2021/11/22 03:15:11;;;;;;;1.00;1.00;;;6.80;99.90;;;;;;5006797;28;20248;-76
2021/11/22 03:17:38;;;;;;;1.30;0.97;;;6.90;99.90;;;;;;5006686;28;20567;-77
2021/11/22 03:20:07;;;;;;;2.63;1.10;;;6.90;99.90;;;;;;5006308;28;20276;-77
2021/11/22 03:22:34;;;;;;;1.47;0.90;;;6.90;99.90;;;;;;5006564;28;20666;-77
2021/11/22 03:25:01;;;;;;;2.50;1.20;;;6.90;99.90;;;;;;5006792;28;20237;-77
2021/11/22 03:27:29;;;;;;;2.57;1.20;;;6.90;99.90;;;;;;5006521;28;20229;-77
2021/11/22 03:29:57;;;;;;;2.27;1.40;;;6.90;99.90;;;;;;5006657;28;20210;-78
2021/11/22 03:32:24;;;;;;;2.27;1.70;;;6.90;99.90;;;;;;5005584;28;20574;-78
2021/11/22 03:34:52;;;;;;;2.73;1.63;;;6.90;99.90;;;;;;5006697;28;20263;-78
2021/11/22 03:37:19;;;;;;;2.10;1.47;;;6.90;99.90;;;;;;5006268;28;20217;-78
2021/11/22 03:39:49;;;;;;;1.53;1.27;;;6.90;99.90;;;;;;5006188;28;20265;-77
2021/11/22 03:42:17;;;;;;;3.23;1.30;;;6.80;99.90;;;;;;5005790;28;20197;-77
2021/11/22 03:44:44;;;;;;;1.30;1.20;;;6.80;99.90;;;;;;5005878;28;20303;-77
2021/11/22 03:47:13;;;;;;;1.50;1.00;;;6.90;99.90;;;;;;5006560;28;20288;-77
2021/11/22 03:49:41;;;;;;;1.20;1.10;;;6.90;99.90;;;;;;5006136;28;20630;-76
2021/11/22 03:52:10;;;;;;;0.83;0.70;;;6.80;99.90;;;;;;5005992;28;20278;-76
2021/11/22 03:54:37;;;;;;;1.20;1.10;;;6.80;99.90;;;;;;5005706;28;20214;-76
2021/11/22 03:57:05;;;;;;;1.43;1.00;;;6.80;99.90;;;;;;5005965;28;20278;-76
2021/11/22 03:59:32;;;;;;;1.33;0.83;;;6.80;99.90;;;;;;5005929;28;20236;-76
2021/11/22 04:01:59;;;;;;;1.40;1.13;;;6.80;99.90;;;;;;5005644;28;20328;-76
2021/11/22 04:04:27;;;;;;;0.73;0.73;;;6.80;99.90;;;;;;5008047;28;20205;-75
2021/11/22 04:06:55;;;;;;;2.13;1.20;;;6.80;99.90;;;;;;5025469;28;20238;-75
2021/11/22 04:09:22;;;;;;;1.10;0.90;;;6.80;99.90;;;;;;5007836;28;20205;-75
2021/11/22 04:11:49;;;;;;;1.33;0.80;;;6.80;99.90;;;;;;5025238;28;20317;-75
2021/11/22 04:14:16;;;;;;;0.90;0.90;;;6.80;99.90;;;;;;5025060;28;20209;-74
2021/11/22 04:16:43;;;;;;;1.60;0.60;;;6.80;99.90;;;;;;5024977;28;20212;-75
2021/11/22 04:19:10;;;;;;;0.87;0.60;;;6.80;99.90;;;;;;5025211;28;20308;-75
2021/11/22 04:21:39;;;;;;;1.60;0.60;;;6.80;99.90;;;;;;5025587;28;20217;-75
2021/11/22 04:24:06;;;;;;;0.90;0.77;;;6.80;99.90;;;;;;5024948;28;20205;-75
2021/11/22 04:26:33;;;;;;;0.60;0.60;;;6.80;99.90;;;;;;5025479;28;20205;-75
2021/11/22 04:29:00;;;;;;;1.10;0.50;;;6.70;99.90;;;;;;5025361;28;20247;-75
2021/11/22 04:31:27;;;;;;;1.27;0.67;;;6.80;99.90;;;;;;5025450;28;20259;-75
2021/11/22 04:33:54;;;;;;;1.03;0.67;;;6.80;99.90;;;;;;5025271;28;20292;-75
2021/11/22 04:36:21;;;;;;;4.33;0.77;;;6.80;99.90;;;;;;5024854;28;20303;-75
2021/11/22 04:38:50;;;;;;;1.37;0.77;;;6.80;99.90;;;;;;5025194;28;20219;-75
2021/11/22 04:41:18;;;;;;;1.17;0.67;;;6.70;99.90;;;;;;5024634;28;20722;-74
2021/11/22 04:43:44;;;;;;;2.93;1.07;;;6.70;99.90;;;;;;5026581;28;20641;-75
2021/11/22 04:46:11;;;;;;;0.67;0.50;;;6.80;99.90;;;;;;5028645;28;20240;-75
2021/11/22 04:48:39;;;;;;;1.20;0.70;;;6.80;99.90;;;;;;5028449;28;20282;-75
2021/11/22 04:51:08;;;;;;;1.50;0.50;;;6.70;99.90;;;;;;5028597;28;20277;-76
2021/11/22 04:53:35;;;;;;;0.97;0.60;;;6.70;99.90;;;;;;5028115;28;20319;-75
2021/11/22 04:56:04;;;;;;;0.90;0.57;;;6.70;99.90;;;;;;5023780;28;20284;-74
2021/11/22 04:58:32;;;;;;;0.83;0.50;;;6.70;99.90;;;;;;5008518;28;20667;-86
2021/11/22 05:00:59;;;;;;;0.50;0.50;;;6.70;99.90;;;;;;5008438;28;20602;-73
2021/11/22 05:03:26;;;;;;;0.80;0.80;;;6.70;99.90;;;;;;5008083;28;20197;-74
2021/11/22 05:05:54;;;;;;;0.87;0.53;;;6.60;99.90;;;;;;5007592;28;20296;-73
2021/11/22 05:08:21;;;;;;;0.90;0.67;;;6.60;99.90;;;;;;5024091;28;20240;-74
2021/11/22 05:10:48;;;;;;;0.70;0.63;;;6.60;99.90;;;;;;5022983;28;20227;-75
2021/11/22 05:13:19;;;;;;;0.53;0.53;;;6.60;99.90;;;;;;5024100;28;20621;-75
2021/11/22 05:15:48;;;;;;;1.47;1.13;;;6.60;99.90;;;;;;5024866;28;20193;-75
2021/11/22 05:18:16;;;;;;;1.67;0.90;;;6.60;99.90;;;;;;5023911;28;20213;-75
2021/11/22 05:20:44;;;;;;;1.67;1.03;;;6.60;99.90;;;;;;5024238;28;20320;-73
2021/11/22 05:23:13;;;;;;;1.40;1.30;;;6.60;99.90;;;;;;5018803;28;20215;-73
2021/11/22 05:25:40;;;;;;;3.23;1.90;;;6.60;99.90;;;;;;5004067;28;20322;-73
2021/11/22 05:28:08;;;;;;;1.20;1.00;;;6.60;99.90;;;;;;5004253;28;20700;-75
2021/11/22 05:30:37;;;;;;;1.07;0.97;;;6.60;99.90;;;;;;5004100;28;20210;-75
2021/11/22 05:33:05;;;;;;;2.50;1.07;;;6.60;99.90;;;;;;5004428;28;20209;-75
2021/11/22 05:35:33;;;;;;;1.60;0.87;;;6.60;99.90;;;;;;5004180;28;20207;-75
2021/11/22 05:38:00;;;;;;;1.37;1.20;;;6.60;99.90;;;;;;5004119;28;20301;-74
2021/11/22 05:40:27;;;;;;;1.37;0.97;;;6.60;99.90;;;;;;5005727;28;20325;-75
2021/11/22 05:42:55;;;;;;;1.33;1.10;;;6.50;99.90;;;;;;5007985;28;20237;-75
2021/11/22 05:45:22;;;;;;;1.47;1.07;;;6.50;99.90;;;;;;5007853;28;20213;-75
2021/11/22 05:47:50;;;;;;;2.10;1.07;;;6.50;99.90;;;;;;5007757;28;20667;-75
2021/11/22 05:50:19;;;;;;;1.47;0.70;;;6.40;99.90;;;;;;5007611;28;20241;-75
2021/11/22 05:52:50;;;;;;;1.47;0.60;;;6.40;99.90;;;;;;5007567;28;20229;-75
2021/11/22 05:55:27;;;;;;;0.77;0.57;;;6.40;99.90;;;;;;5006755;28;20284;-75
2021/11/22 05:57:54;;;;;;;0.30;0.30;;;6.40;99.90;;;;;;5007774;28;20239;-75
2021/11/22 06:00:21;;;;;;;0.53;0.53;;;6.40;99.90;;;;;;5007514;28;20298;-75
2021/11/22 06:02:49;;;;;;;1.13;0.40;;;6.30;99.90;;;;;;5006793;28;20237;-75
2021/11/22 06:05:17;;;;;;;0.77;0.40;;;6.30;99.90;;;;;;5007399;28;20696;-75
2021/11/22 06:07:44;;;;;;;1.70;0.50;;;6.20;99.90;;;;;;5007313;28;20206;-75
2021/11/22 06:10:11;;;;;;;1.00;0.53;;;6.20;99.90;;;;;;5006937;28;20780;-75
2021/11/22 06:12:38;;;;;;;1.77;0.60;;;6.20;99.90;;;;;;5007003;28;20249;-73
2021/11/22 06:15:06;;;;;;;0.43;0.40;;;6.20;99.90;;;;;;5007257;28;20294;-75
2021/11/22 06:17:33;;;;;;;1.67;0.90;;;6.10;99.90;;;;;;5007213;28;20242;-72
2021/11/22 06:20:00;;;;;;;0.60;0.60;;;6.10;99.90;;;;;;5007339;28;20289;-74
2021/11/22 06:22:28;;;;;;;0.90;0.50;;;6.00;99.90;;;;;;5006981;28;20231;-74
2021/11/22 06:24:55;;;;;;;0.67;0.67;;;6.00;99.90;;;;;;5006947;28;20300;-74
2021/11/22 06:27:24;;;;;;;1.53;0.90;;;5.90;99.90;;;;;;5006881;28;20233;-74
2021/11/22 06:29:51;;;;;;;1.33;0.80;;;6.00;99.90;;;;;;5007025;28;20209;-74
2021/11/22 06:32:18;;;;;;;1.50;0.70;;;5.90;99.90;;;;;;5007221;28;20283;-74
2021/11/22 06:34:46;;;;;;;0.67;0.60;;;5.90;99.90;;;;;;5006863;28;20206;-74
2021/11/22 06:37:13;;;;;;;1.47;0.60;;;5.80;99.90;;;;;;5006361;28;20232;-74
2021/11/22 06:39:41;;;;;;;0.73;0.73;;;5.80;99.90;;;;;;5007014;28;20205;-74
2021/11/22 06:42:09;;;;;;;0.50;0.50;;;5.80;99.90;;;;;;5006846;28;20333;-74
2021/11/22 06:44:36;;;;;;;1.27;0.70;;;5.80;99.90;;;;;;5006527;28;20300;-74
2021/11/22 06:47:03;;;;;;;1.80;0.73;;;5.70;99.90;;;;;;5006489;28;20580;-74
2021/11/22 06:49:31;;;;;;;1.13;0.70;;;5.80;99.90;;;;;;5006356;28;20260;-74
2021/11/22 06:51:58;;;;;;;1.20;0.90;;;5.70;99.90;;;;;;5006785;28;20642;-74
2021/11/22 06:54:25;;;;;;;1.13;0.90;;;5.70;99.90;;;;;;5006511;28;20236;-74
2021/11/22 06:56:53;;;;;;;3.37;1.10;;;5.60;99.90;;;;;;5006717;28;20675;-74
2021/11/22 06:59:20;;;;;;;1.20;1.07;;;5.60;99.90;;;;;;5006940;28;20270;-74
2021/11/22 07:01:47;;;;;;;1.23;1.03;;;5.60;99.90;;;;;;5006359;28;20290;-74
2021/11/22 07:04:14;;;;;;;1.00;1.00;;;5.60;99.90;;;;;;5006394;28;20206;-74
2021/11/22 07:06:41;;;;;;;0.80;0.80;;;5.60;99.90;;;;;;5005759;28;20210;-74
2021/11/22 07:09:08;;;;;;;1.10;0.90;;;5.60;99.90;;;;;;5006094;28;20249;-74
2021/11/22 07:11:35;;;;;;;1.03;0.80;;;5.50;99.90;;;;;;5006220;28;20739;-74
2021/11/22 07:14:05;;;;;;;1.00;1.00;;;5.60;99.90;;;;;;5006331;28;20237;-74
2021/11/22 07:16:33;;;;;;;0.90;0.90;;;5.60;99.90;;;;;;5006193;28;20250;-74
2021/11/22 07:19:00;;;;;;;0.80;0.80;;;5.60;99.90;;;;;;5006272;28;20624;-74
2021/11/22 07:21:27;;;;;;;2.47;0.77;;;5.60;99.90;;;;;;5006431;28;20324;-74
2021/11/22 07:23:54;;;;;;;1.53;0.80;;;5.70;99.90;;;;;;5006202;28;20578;-74
2021/11/22 07:26:21;;;;;;;0.90;0.90;;;5.70;99.90;;;;;;5005984;28;20312;-74
2021/11/22 07:28:48;;;;;;;1.07;0.90;;;5.80;99.90;;;;;;5006200;28;20249;-74
2021/11/22 07:31:17;;;;;;;1.00;0.90;;;5.80;99.90;;;;;;5006142;28;20301;-74
2021/11/22 07:33:43;;;;;;;1.87;0.70;;;5.90;99.90;;;;;;5006041;28;20237;-74
2021/11/22 07:36:10;;;;;;;2.87;0.70;;;6.00;99.90;;;;;;5006044;28;20245;-74
2021/11/22 07:38:38;;;;;;;0.63;0.60;;;6.10;99.90;;;;;;5004923;28;20220;-74
2021/11/22 07:41:05;;;;;;;1.43;0.70;;;6.10;99.90;;;;;;5005981;28;20229;-74
2021/11/22 07:43:32;;;;;;;0.60;0.60;;;6.20;99.90;;;;;;5005637;28;20296;-74
2021/11/22 07:45:59;;;;;;;0.73;0.73;;;6.20;99.90;;;;;;5005870;28;20205;-74
2021/11/22 07:48:28;;;;;;;0.80;0.60;;;6.20;99.90;;;;;;5005374;28;20247;-74
2021/11/22 07:50:55;;;;;;;0.57;0.57;;;6.30;99.90;;;;;;5005682;28;20319;-74
2021/11/22 07:53:22;;;;;;;0.50;0.50;;;6.30;99.90;;;;;;5005390;28;20256;-74
2021/11/22 07:55:49;;;;;;;0.73;0.50;;;6.30;99.90;;;;;;5005978;28;20254;-74
2021/11/22 07:58:16;;;;;;;0.50;0.50;;;6.30;99.90;;;;;;5005450;28;20260;-73
2021/11/22 08:00:43;;;;;;;1.27;0.57;;;6.30;99.90;;;;;;5005586;28;20229;-73
2021/11/22 08:03:10;;;;;;;1.47;0.73;;;6.40;99.90;;;;;;5005124;28;20237;-74
2021/11/22 08:05:39;;;;;;;1.37;0.60;;;6.50;99.90;;;;;;5005322;28;20240;-73
2021/11/22 08:08:06;;;;;;;0.57;0.40;;;6.50;99.90;;;;;;5005408;28;20274;-73
2021/11/22 08:10:35;;;;;;;1.30;0.70;;;6.60;99.90;;;;;;5005312;28;20229;-74
2021/11/22 08:13:04;;;;;;;0.80;0.73;;;6.60;99.90;;;;;;5005228;28;20240;-73
2021/11/22 08:15:33;;;;;;;0.53;0.53;;;6.60;99.90;;;;;;5005872;28;20237;-74
2021/11/22 08:18:02;;;;;;;0.40;0.40;;;6.70;99.90;;;;;;5005772;28;20796;-74
2021/11/22 08:20:30;;;;;;;0.53;0.47;;;6.70;99.90;;;;;;5009102;28;20262;-73
2021/11/22 08:22:59;;;;;;;0.40;0.40;;;6.80;99.90;;;;;;5008821;28;20216;-74
2021/11/22 08:25:27;;;;;;;1.00;0.60;;;6.90;99.90;;;;;;5009038;28;20205;-73
2021/11/22 08:27:55;;;;;;;0.70;0.63;;;6.90;99.90;;;;;;5008851;28;20209;-73
2021/11/22 08:30:25;;;;;;;0.57;0.57;;;6.90;99.90;;;;;;5008701;28;20213;-73
2021/11/22 08:32:53;;;;;;;1.00;1.00;;;7.00;99.90;;;;;;5008973;28;20296;-73
2021/11/22 08:35:21;;;;;;;2.30;1.80;;;7.10;99.90;;;;;;5008459;28;20742;-73
2021/11/22 08:37:49;;;;;;;2.10;2.00;;;7.10;99.90;;;;;;5008608;28;20288;-73
2021/11/22 08:40:21;;;;;;;1.60;1.50;;;7.10;99.90;;;;;;5008546;28;20320;-73
2021/11/22 08:42:50;;;;;;;1.70;1.60;;;7.10;99.90;;;;;;5008734;28;20283;-73
2021/11/22 08:45:17;;;;;;;1.57;1.40;;;7.20;99.90;;;;;;5008736;28;20209;-73
2021/11/22 08:47:44;;;;;;;1.77;1.67;;;7.30;99.90;;;;;;5008703;28;20374;-73
2021/11/22 08:50:13;;;;;;;1.80;1.30;;;7.30;99.90;;;;;;5008209;28;20210;-73
2021/11/22 08:52:40;;;;;;;1.50;1.40;;;7.40;99.90;;;;;;5008504;28;20217;-74
2021/11/22 08:55:08;;;;;;;1.43;1.27;;;7.50;99.90;;;;;;5008363;28;20414;-73
2021/11/22 08:57:37;;;;;;;2.97;1.30;;;7.60;99.90;;;;;;5008298;28;20213;-73
2021/11/22 09:00:08;;;;;;;1.30;0.80;;;7.70;99.90;;;;;;5007870;28;20655;-73
2021/11/22 09:02:35;;;;;;;0.63;0.60;;;7.80;99.90;;;;;;5008001;28;20345;-74
2021/11/22 09:05:02;;;;;;;0.73;0.63;;;7.90;99.90;;;;;;5008607;28;20205;-74
2021/11/22 09:07:29;;;;;;;0.50;0.50;;;7.90;99.90;;;;;;5008620;28;20292;-73
2021/11/22 09:09:55;;;;;;;1.37;0.60;;;8.00;99.90;;;;;;5008173;28;20222;-73
2021/11/22 09:12:22;;;;;;;1.90;0.80;;;8.10;99.90;;;;;;5008342;28;20305;-73
2021/11/22 09:14:51;;;;;;;0.47;0.47;;;8.20;99.90;;;;;;5008282;28;20830;-73
2021/11/22 09:17:18;;;;;;;2.17;0.70;;;8.30;99.90;;;;;;5007897;28;20249;-73
2021/11/22 09:19:45;;;;;;;0.70;0.63;;;8.30;99.90;;;;;;5008340;28;20244;-74
2021/11/22 09:22:12;;;;;;;0.50;0.50;;;8.30;99.90;;;;;;5007626;28;20323;-73
2021/11/22 09:24:40;;;;;;;0.87;0.60;;;8.40;99.90;;;;;;5008117;28;20228;-74
2021/11/22 09:27:08;;;;;;;0.67;0.30;;;8.40;99.90;;;;;;5007936;28;20312;-73
2021/11/22 09:29:35;;;;;;;0.57;0.57;;;8.40;99.90;;;;;;5006887;28;20655;-73
2021/11/22 09:32:08;;;;;;;1.00;0.53;;;8.40;99.90;;;;;;5007961;28;20300;-73
2021/11/22 09:34:35;;;;;;;1.57;0.50;;;8.50;99.90;;;;;;5007637;28;20644;-74
2021/11/22 09:37:03;;;;;;;0.70;0.70;;;8.60;99.90;;;;;;5007924;28;20292;-74
2021/11/22 09:39:30;;;;;;;0.43;0.43;;;8.70;99.90;;;;;;5007876;28;20263;-73
2021/11/22 09:41:56;;;;;;;1.10;0.57;;;8.70;99.90;;;;;;5007631;28;20289;-74
2021/11/22 09:44:24;;;;;;;0.50;0.50;;;8.80;99.90;;;;;;5008026;28;20238;-74
2021/11/22 09:46:54;;;;;;;0.50;0.50;;;8.80;99.90;;;;;;5007814;28;20732;-74
2021/11/22 09:49:23;;;;;;;0.50;0.43;;;8.80;99.90;;;;;;5007705;28;20296;-74
2021/11/22 09:51:52;;;;;;;0.47;0.40;;;8.80;99.90;;;;;;5007809;28;20332;-74
2021/11/22 09:54:20;;;;;;;0.83;0.53;;;8.90;99.90;;;;;;5007557;28;20217;-74
2021/11/22 09:56:49;;;;;;;1.13;0.67;;;9.10;99.90;;;;;;5007861;28;20241;-74
2021/11/22 09:59:17;;;;;;;1.43;0.50;;;9.10;99.90;;;;;;5007722;28;20210;-73
2021/11/22 10:01:45;;;;;;;0.87;0.60;;;9.20;99.90;;;;;;5007364;28;20249;-73
2021/11/22 10:04:14;;;;;;;0.67;0.40;;;9.20;99.90;;;;;;5007544;28;20597;-74
2021/11/22 10:06:51;;;;;;;0.47;0.47;;;9.30;99.90;;;;;;5007247;28;20206;-73
2021/11/22 10:09:38;;;;;;;0.60;0.30;;;9.40;99.90;;;;;;5007270;28;20311;-74
2021/11/22 10:12:07;;;;;;;0.50;0.50;;;9.50;99.90;;;;;;5007326;28;20285;-74
2021/11/22 10:14:38;;;;;;;1.27;0.60;;;9.50;99.90;;;;;;5007047;28;20209;-74
2021/11/22 10:17:27;;;;;;;0.47;0.47;;;9.50;99.90;;;;;;5006924;28;20207;-74
2021/11/22 10:20:17;;;;;;;0.43;0.30;;;9.40;99.90;;;;;;5007559;28;20285;-74
2021/11/22 10:22:48;;;;;;;0.30;0.30;;;9.30;99.90;;;;;;5007265;28;20834;-73
2021/11/22 10:25:35;;;;;;;0.20;0.20;;;9.40;99.90;;;;;;5007259;28;20261;-74
2021/11/22 10:28:09;;;;;;;0.33;0.27;;;9.50;99.90;;;;;;5006923;28;20233;-74
2021/11/22 10:30:38;;;;;;;1.60;0.40;;;9.70;99.90;;;;;;5007053;28;20200;-74
2021/11/22 10:33:07;;;;;;;0.10;0.10;;;9.80;99.90;;;;;;5006761;28;20244;-74
2021/11/22 10:35:35;;;;;;;0.20;0.20;;;9.70;99.90;;;;;;5007176;28;20244;-74
2021/11/22 10:38:08;;;;;;;0.30;0.30;;;9.80;99.90;;;;;;5006550;28;20271;-73
2021/11/22 10:40:37;;;;;;;0.20;0.20;;;9.90;99.90;;;;;;5006720;28;20197;-73
2021/11/22 10:43:06;;;;;;;0.30;0.30;;;9.80;99.90;;;;;;5006945;28;20276;-74
2021/11/22 10:45:36;;;;;;;0.20;0.20;;;9.80;99.90;;;;;;5007274;28;20237;-73
2021/11/22 10:48:13;;;;;;;0.30;0.30;;;10.00;99.90;;;;;;5006755;28;20810;-74
2021/11/22 10:50:48;;;;;;;0.40;0.30;;;10.00;99.90;;;;;;5006630;28;20221;-74
2021/11/22 10:53:24;;;;;;;0.30;0.30;;;10.10;99.90;;;;;;5006198;28;20198;-74
2021/11/22 10:55:51;;;;;;;1.73;0.30;;;10.20;99.90;;;;;;5006860;28;20193;-73
2021/11/22 10:58:38;;;;;;;0.10;0.10;;;10.20;99.90;;;;;;5006819;28;20241;-74
2021/11/22 11:01:29;;;;;;;0.20;0.17;;;10.40;99.90;;;;;;5006110;28;20577;-74
2021/11/22 11:03:59;;;;;;;0.20;0.20;;;10.50;99.90;;;;;;5006753;28;20235;-73
2021/11/22 11:06:43;;;;;;;0.50;0.30;;;10.60;99.90;;;;;;5006300;28;20245;-74
2021/11/22 11:09:15;;;;;;;0.83;0.40;;;10.40;99.90;;;;;;5005957;28;20651;-73
2021/11/22 11:11:42;;;;;;;0.87;0.37;;;10.40;99.90;;;;;;5006838;28;20430;-73
2021/11/22 11:14:12;;;;;;;0.30;0.30;;;10.30;99.90;;;;;;5006210;28;20578;-73
2021/11/22 11:16:40;;;;;;;1.03;0.30;;;10.30;99.90;;;;;;5006567;28;20293;-73
2021/11/22 11:19:10;;;;;;;2.13;0.30;;;10.30;99.90;;;;;;5006086;28;20292;-73
2021/11/22 11:21:39;;;;;;;1.17;0.30;;;10.30;99.90;;;;;;5006066;28;20301;-73
2021/11/22 11:24:06;;;;;;;0.77;0.20;;;10.30;99.90;;;;;;5006025;28;20656;-73
2021/11/22 11:26:36;;;;;;;0.20;0.20;;;10.40;99.90;;;;;;5005995;28;20696;-74
2021/11/22 11:29:05;;;;;;;0.30;0.30;;;10.50;99.90;;;;;;5006032;28;20266;-74
2021/11/22 11:31:35;;;;;;;1.77;0.37;;;10.60;99.90;;;;;;5006473;28;20222;-73
2021/11/22 11:34:06;;;;;;;0.50;0.47;;;10.60;99.90;;;;;;5005938;28;21076;-73
2021/11/22 11:37:22;;;;;;;0.40;0.37;;;10.70;99.90;;;;;;5006277;28;20200;-73
2021/11/22 11:40:28;;;;;;;0.30;0.30;;;10.80;99.90;;;;;;5006012;28;20271;-73
2021/11/22 11:43:46;;;;;;;1.60;0.27;;;10.80;99.90;;;;;;5006200;28;20644;-73
2021/11/22 11:46:20;;;;;;;0.80;0.40;;;10.90;99.90;;;;;;5005668;28;20228;-73
2021/11/22 11:49:01;;;;;;;0.20;0.20;;;10.80;99.90;;;;;;5005964;28;20200;-73
2021/11/22 11:51:37;;;;;;;0.23;0.20;;;10.50;99.90;;;;;;5005316;28;20241;-73
2021/11/22 11:54:13;;;;;;;0.30;0.30;;;10.20;99.90;;;;;;5004803;28;20608;-73
2021/11/22 11:56:49;;;;;;;0.73;0.60;;;10.10;99.90;;;;;;5005877;28;20575;-73
2021/11/22 11:59:22;;;;;;;0.30;0.30;;;9.90;99.90;;;;;;5005858;28;20217;-73
2021/11/22 12:02:07;;;;;;;0.70;0.40;;;9.80;99.90;;;;;;5005821;28;20238;-73
2021/11/22 12:05:00;;;;;;;0.20;0.20;;;9.70;99.90;;;;;;5006065;28;20221;-73
2021/11/22 12:07:31;;;;;;;0.67;0.30;;;9.60;99.90;;;;;;5005811;28;20292;-73
2021/11/22 12:10:14;;;;;;;0.30;0.30;;;9.50;99.90;;;;;;5005823;28;20268;-73
2021/11/22 12:12:42;;;;;;;0.20;0.20;;;9.70;99.90;;;;;;5005745;28;20245;-73
2021/11/22 12:15:25;;;;;;;0.53;0.20;;;9.70;99.90;;;;;;5005857;28;20210;-73
2021/11/22 12:17:58;;;;;;;0.27;0.23;;;9.60;99.90;;;;;;5005323;28;20664;-73
2021/11/22 12:20:49;;;;;;;1.60;0.13;;;9.50;99.90;;;;;;5005701;28;20241;-73
2021/11/22 12:23:20;;;;;;;0.40;0.40;;;9.40;99.90;;;;;;5005175;28;20987;-73
2021/11/22 12:25:50;;;;;;;0.80;0.40;;;9.30;99.90;;;;;;5005465;28;20226;-73
2021/11/22 12:28:42;;;;;;;0.30;0.30;;;9.20;99.90;;;;;;5005587;28;20294;-73
2021/11/22 12:31:13;;;;;;;0.33;0.30;;;9.50;99.90;;;;;;5005466;28;20202;-73
2021/11/22 12:33:41;;;;;;;0.60;0.40;;;9.70;99.90;;;;;;5005195;28;20668;-73
2021/11/22 12:36:57;;;;;;;0.20;0.20;;;9.80;99.90;;;;;;5005360;28;20300;-74
2021/11/22 12:39:26;;;;;;;0.37;0.30;;;9.80;99.90;;;;;;5004932;28;20194;-74
2021/11/22 12:42:15;;;;;;;1.13;0.20;;;9.70;99.90;;;;;;5005050;28;20227;-74
2021/11/22 12:44:55;;;;;;;0.57;0.30;;;9.60;99.90;;;;;;5005254;28;20666;-74
2021/11/22 12:47:28;;;;;;;0.20;0.10;;;9.50;99.90;;;;;;5005178;28;20225;-74
2021/11/22 12:50:08;;;;;;;0.90;0.57;;;9.30;99.90;;;;;;5005323;28;20485;-73
2021/11/22 12:52:36;;;;;;;0.63;0.23;;;9.20;99.90;;;;;;5005136;28;20229;-74
2021/11/22 12:55:13;;;;;;;1.27;0.70;;;9.10;99.90;;;;;;5005170;28;20214;-74
2021/11/22 12:57:42;;;;;;;0.70;0.57;;;9.00;99.90;;;;;;5005224;28;20220;-74
2021/11/22 13:00:39;;;;;;;0.63;0.50;;;8.90;99.90;;;;;;5004958;28;20214;-74
2021/11/22 13:03:10;;;;;;;0.23;0.23;;;8.80;99.90;;;;;;5004402;28;20246;-74
2021/11/22 13:05:49;;;;;;;0.80;0.37;;;8.70;99.90;;;;;;5007928;28;20198;-74
2021/11/22 13:08:37;;;;;;;0.30;0.30;;;8.70;99.90;;;;;;5008233;28;20252;-74